Søk
Bilder fra klubbens virksomhet
Tooltip
Soloflygninger
Tooltip
Espen Wiik har fløyet solo
Tooltip
Rashad Habib har fløyet solo
Tooltip
David Froholt har fløyet solo
Tooltip
Leif Olsen er pilot
  • Tilfeldig bilde
     
    Opplastet 12-05-2008
    Opplastet 11-05-2008
    Opplastet 12-05-2008
     
  • Siste bilde
     
    Opplastet 27-07-2018
    Opplastet 05-06-2018
    Opplastet 31-10-2017
     
«StartForrige1234NesteSiste»
Side 1 av 4
 
 
METAR
2021/04/14 22:50 ENCN 142250Z AUTO 06003KT 9999 OVC084/// 02/M03 Q1031
TAF
2021/04/14 15:38 TAF ENCN 141400Z 1415/1419 20008KT 9999 FEW040 SCT060= TAF ENHD 141400Z 1415/1420 34012KT 9999 FEW020TCU SCT050
LN-KFK
Operativ VFR-natt
VFR dag
05:34 - 21:23
Brannvakt
Inaktiv
Banner
Banner
Banner
Banner
Banner